createdAt,value
2019-04-28T00:01:37.472Z,54.80
2019-04-28T00:04:06.423Z,54.70
2019-04-28T00:06:35.602Z,54.90
2019-04-28T00:09:06.071Z,55.00
2019-04-28T00:11:35.137Z,55.10
2019-04-28T00:14:04.176Z,54.90
2019-04-28T00:16:33.273Z,54.80
2019-04-28T00:19:02.169Z,55.20
2019-04-28T00:21:39.053Z,54.70
2019-04-28T00:24:23.010Z,54.70
2019-04-28T00:26:53.775Z,54.70
2019-04-28T00:29:22.591Z,54.60
2019-04-28T00:31:51.518Z,54.60
2019-04-28T00:34:21.247Z,54.60
2019-04-28T00:36:51.996Z,54.60
2019-04-28T00:39:22.682Z,54.50
2019-04-28T00:41:51.721Z,54.60
2019-04-28T00:44:21.902Z,54.60
2019-04-28T00:46:51.249Z,54.90
2019-04-28T00:49:23.318Z,55.00
2019-04-28T00:51:52.161Z,55.00
2019-04-28T00:54:21.863Z,55.10
2019-04-28T00:56:51.683Z,55.30
2019-04-28T00:59:21.699Z,55.50
2019-04-28T01:01:52.257Z,55.50
2019-04-28T01:04:21.890Z,55.40
2019-04-28T01:06:51.998Z,55.40
2019-04-28T01:09:21.765Z,55.20
2019-04-28T01:11:53.481Z,55.10
2019-04-28T01:14:21.784Z,55.20
2019-04-28T01:17:10.519Z,55.70
2019-04-28T01:19:40.994Z,55.80
2019-04-28T01:22:11.445Z,55.70
2019-04-28T01:24:41.221Z,56.00
2019-04-28T01:27:11.738Z,56.00
2019-04-28T01:29:40.859Z,56.00
2019-04-28T01:32:26.258Z,55.90
2019-04-28T01:34:55.085Z,55.60
2019-04-28T01:37:23.905Z,55.60
2019-04-28T01:39:53.515Z,55.50
2019-04-28T01:42:22.614Z,55.60
2019-04-28T01:44:51.429Z,55.60
2019-04-28T01:47:20.538Z,55.50
2019-04-28T01:49:50.138Z,55.40
2019-04-28T01:52:20.298Z,55.40
2019-04-28T01:54:50.214Z,55.30
2019-04-28T01:57:21.513Z,55.40
2019-04-28T01:59:51.863Z,56.00
2019-04-28T02:02:20.700Z,55.40
2019-04-28T02:04:49.992Z,55.50
2019-04-28T02:07:20.603Z,55.80
2019-04-28T02:09:49.573Z,56.30
2019-04-28T02:12:20.384Z,55.90
2019-04-28T02:14:49.980Z,56.00
2019-04-28T02:17:20.392Z,55.90
2019-04-28T02:19:49.218Z,55.90
2019-04-28T02:22:20.194Z,55.80
2019-04-28T02:24:50.514Z,55.80
2019-04-28T02:27:20.339Z,55.80
2019-04-28T02:29:49.936Z,56.10
2019-04-28T02:32:21.275Z,55.60
2019-04-28T02:34:50.826Z,55.50
2019-04-28T02:37:20.646Z,55.80
2019-04-28T02:39:50.538Z,55.40
2019-04-28T02:42:20.783Z,55.50
2019-04-28T02:44:50.729Z,55.40
2019-04-28T02:47:21.944Z,55.40
2019-04-28T02:49:51.893Z,55.90
2019-04-28T02:52:31.053Z,55.70
2019-04-28T02:55:03.054Z,55.40
2019-04-28T02:57:30.890Z,55.50
2019-04-28T03:00:00.438Z,55.60
2019-04-28T03:02:31.906Z,55.40
2019-04-28T03:05:00.424Z,55.30
2019-04-28T03:07:31.163Z,55.30
2019-04-28T03:10:03.176Z,55.30
2019-04-28T03:12:31.670Z,55.30
2019-04-28T03:15:00.896Z,55.30
2019-04-28T03:17:31.084Z,55.20
2019-04-28T03:20:00.963Z,55.20
2019-04-28T03:22:32.947Z,55.10
2019-04-28T03:25:02.638Z,55.10
2019-04-28T03:27:50.911Z,55.10
2019-04-28T03:30:36.055Z,55.00
2019-04-28T03:33:13.365Z,55.00
2019-04-28T03:35:37.472Z,55.00
2019-04-28T03:43:51.618Z,55.00
2019-04-28T03:46:22.185Z,55.00
2019-04-28T03:48:51.257Z,55.00
2019-04-28T03:51:21.234Z,55.00
2019-04-28T03:53:50.779Z,54.90
2019-04-28T03:56:20.966Z,54.90
2019-04-28T03:58:50.528Z,55.00
2019-04-28T04:01:20.687Z,55.00
2019-04-28T04:03:51.569Z,54.90
2019-04-28T04:06:22.605Z,54.90
2019-04-28T04:08:50.868Z,54.90
2019-04-28T04:11:23.978Z,55.30
2019-04-28T04:13:54.443Z,55.00
2019-04-28T04:16:41.383Z,54.90
2019-04-28T04:19:14.510Z,54.90
2019-04-28T04:21:43.338Z,55.00
2019-04-28T04:24:12.425Z,54.80
2019-04-28T04:26:41.277Z,54.80
2019-04-28T04:29:10.730Z,54.70
2019-04-28T04:31:41.305Z,54.80
2019-04-28T04:34:10.784Z,54.70
2019-04-28T04:36:41.748Z,54.70
2019-04-28T04:39:10.921Z,54.70
2019-04-28T04:41:43.037Z,54.70
2019-04-28T04:44:11.080Z,54.70
2019-04-28T04:46:41.477Z,54.70
2019-04-28T04:49:10.795Z,54.70
2019-04-28T04:51:40.716Z,54.80
2019-04-28T04:54:10.814Z,54.70
2019-04-28T04:56:40.302Z,54.70
2019-04-28T04:59:10.247Z,54.60
2019-04-28T05:01:43.699Z,54.70
2019-04-28T05:04:16.851Z,54.60
2019-04-28T05:06:45.912Z,54.60
2019-04-28T05:09:14.754Z,54.70
2019-04-28T05:11:43.675Z,54.70
2019-04-28T05:14:12.516Z,54.60
2019-04-28T05:16:41.592Z,54.70
2019-04-28T05:19:10.805Z,54.70
2019-04-28T05:21:40.369Z,54.70
2019-04-28T05:24:15.708Z,54.70
2019-04-28T05:26:47.872Z,54.70
2019-04-28T05:29:12.662Z,54.70
2019-04-28T05:31:41.497Z,54.60
2019-04-28T05:34:11.619Z,54.70
2019-04-28T05:36:44.404Z,54.70
2019-04-28T05:39:11.281Z,54.70
2019-04-28T05:41:40.171Z,54.70
2019-04-28T05:44:10.034Z,54.70
2019-04-28T05:46:40.194Z,54.70
2019-04-28T05:49:14.022Z,54.70
2019-04-28T05:51:47.021Z,54.70
2019-04-28T05:54:23.446Z,55.30
2019-04-28T05:57:05.774Z,54.70
2019-04-28T05:59:51.985Z,54.70
2019-04-28T06:02:28.311Z,54.70
2019-04-28T06:04:57.154Z,54.70
2019-04-28T06:07:33.161Z,54.70
2019-04-28T06:10:02.271Z,54.70
2019-04-28T06:12:32.007Z,54.60
2019-04-28T06:15:00.962Z,54.50
2019-04-28T06:17:29.794Z,54.40
2019-04-28T06:20:00.172Z,54.50
2019-04-28T06:22:29.034Z,54.40
2019-04-28T06:24:57.938Z,54.30
2019-04-28T06:27:26.913Z,54.30
2019-04-28T06:29:56.138Z,54.40
2019-04-28T06:32:25.098Z,54.20
2019-04-28T06:34:54.022Z,54.30
2019-04-28T06:37:22.911Z,54.30
2019-04-28T06:39:51.833Z,54.40
2019-04-28T06:42:20.644Z,54.40
2019-04-28T06:44:49.454Z,54.40
2019-04-28T06:47:18.359Z,54.70
2019-04-28T06:49:47.258Z,54.80
2019-04-28T06:52:16.091Z,55.50
2019-04-28T06:54:44.914Z,55.00
2019-04-28T06:57:13.727Z,55.00
2019-04-28T06:59:42.553Z,55.00
2019-04-28T07:02:11.411Z,55.10
2019-04-28T07:04:41.244Z,55.00
2019-04-28T07:07:10.477Z,55.00
2019-04-28T07:09:39.412Z,54.90
2019-04-28T07:12:08.230Z,54.80
2019-04-28T07:14:37.058Z,54.70
2019-04-28T07:17:05.937Z,54.50
2019-04-28T07:19:34.770Z,54.40
2019-04-28T07:22:08.525Z,54.30
2019-04-28T07:24:37.367Z,54.20
2019-04-28T07:27:07.620Z,54.20
2019-04-28T07:29:36.455Z,54.20
2019-04-28T07:32:05.418Z,54.20
2019-04-28T07:34:34.247Z,54.20
2019-04-28T07:37:03.351Z,54.10
2019-04-28T07:39:32.173Z,54.20
2019-04-28T07:42:00.988Z,54.20
2019-04-28T07:44:29.822Z,54.10
2019-04-28T07:46:58.641Z,54.10
2019-04-28T07:49:27.472Z,54.10
2019-04-28T07:51:57.927Z,54.10
2019-04-28T07:54:26.916Z,54.10
2019-04-28T07:56:56.122Z,54.20
2019-04-28T07:59:24.944Z,54.30
2019-04-28T08:01:53.786Z,54.30
2019-04-28T08:04:22.670Z,54.50
2019-04-28T08:06:51.776Z,55.20
2019-04-28T08:09:20.908Z,54.60
2019-04-28T08:11:49.988Z,54.70
2019-04-28T08:14:19.785Z,54.60
2019-04-28T08:16:48.807Z,54.60
2019-04-28T08:19:17.638Z,54.70
2019-04-28T08:21:46.470Z,54.60
2019-04-28T08:24:15.276Z,54.50
2019-04-28T08:26:44.375Z,54.10
2019-04-28T08:29:13.229Z,53.80
2019-04-28T08:31:49.170Z,54.10
2019-04-28T08:34:19.638Z,53.20
2019-04-28T08:36:48.476Z,53.00
2019-04-28T08:39:17.451Z,52.90
2019-04-28T08:42:07.753Z,52.70
2019-04-28T08:44:36.650Z,52.40
2019-04-28T08:47:05.494Z,52.40
2019-04-28T08:49:34.586Z,52.40
2019-04-28T08:52:03.420Z,52.40
2019-04-28T08:54:32.328Z,52.60
2019-04-28T08:57:01.156Z,52.70
2019-04-28T08:59:30.046Z,52.70
2019-04-28T09:01:58.871Z,52.70
2019-04-28T09:04:27.719Z,52.60
2019-04-28T09:06:57.522Z,52.50
2019-04-28T09:09:27.431Z,52.50
2019-04-28T09:11:56.586Z,52.40
2019-04-28T09:14:25.406Z,52.50
2019-04-28T09:16:54.242Z,52.50
2019-04-28T09:19:23.164Z,52.60
2019-04-28T09:21:53.082Z,52.70
2019-04-28T09:24:21.855Z,52.80
2019-04-28T09:26:50.692Z,52.90
2019-04-28T09:29:19.678Z,53.10
2019-04-28T09:31:48.880Z,53.20
2019-04-28T09:34:27.802Z,53.30
2019-04-28T09:36:48.963Z,53.50
2019-04-28T09:39:23.383Z,53.50
2019-04-28T09:42:09.426Z,53.60
2019-04-28T09:44:38.609Z,53.60
2019-04-28T09:47:10.301Z,53.60
2019-04-28T09:49:39.889Z,53.60
2019-04-28T09:52:08.911Z,53.60
2019-04-28T09:54:38.375Z,53.60
2019-04-28T09:57:14.144Z,53.60
2019-04-28T09:59:44.746Z,53.70
2019-04-28T10:02:13.601Z,53.40
2019-04-28T10:04:42.494Z,53.30
2019-04-28T10:07:11.587Z,53.00
2019-04-28T10:09:40.418Z,52.80
2019-04-28T10:12:09.232Z,52.50
2019-04-28T10:14:38.067Z,52.30
2019-04-28T10:17:06.888Z,52.20
2019-04-28T10:19:35.740Z,52.00
2019-04-28T10:22:04.898Z,51.80
2019-04-28T10:24:33.714Z,51.60
2019-04-28T10:27:02.625Z,51.60
2019-04-28T10:29:32.976Z,51.50
2019-04-28T10:32:01.856Z,51.30
2019-04-28T10:34:30.737Z,51.30
2019-04-28T10:36:59.809Z,51.20
2019-04-28T10:39:30.271Z,51.20
2019-04-28T10:41:59.099Z,51.30
2019-04-28T10:44:29.311Z,51.30
2019-04-28T10:46:58.294Z,51.50
2019-04-28T10:49:28.055Z,51.20
2019-04-28T10:51:59.483Z,51.10
2019-04-28T10:54:27.754Z,51.00
2019-04-28T10:56:56.834Z,50.80
2019-04-28T10:59:25.793Z,50.60
2019-04-28T11:01:54.831Z,50.40
2019-04-28T11:04:40.720Z,50.50
2019-04-28T11:07:11.271Z,50.60
2019-04-28T11:09:41.825Z,50.70
2019-04-28T11:12:12.255Z,50.80
2019-04-28T11:14:41.096Z,50.80
2019-04-28T11:17:09.976Z,50.90
2019-04-28T11:19:38.891Z,50.90
2019-04-28T11:22:07.804Z,51.00
2019-04-28T11:24:36.625Z,51.10
2019-04-28T11:27:06.097Z,51.00
2019-04-28T11:29:35.163Z,50.90
2019-04-28T11:32:04.148Z,50.90
2019-04-28T11:34:52.650Z,50.90
2019-04-28T11:37:21.525Z,50.80
2019-04-28T11:39:50.367Z,50.90
2019-04-28T11:42:19.257Z,50.80
2019-04-28T11:44:48.321Z,50.90
2019-04-28T11:47:18.881Z,50.70
2019-04-28T11:49:48.100Z,50.60
2019-04-28T11:52:17.031Z,50.60
2019-04-28T11:54:46.101Z,50.70
2019-04-28T11:57:14.919Z,50.60
2019-04-28T11:59:43.819Z,50.70
2019-04-28T12:02:12.951Z,50.80
2019-04-28T12:04:41.904Z,50.80
2019-04-28T12:07:10.736Z,50.90
2019-04-28T12:09:50.121Z,51.00
2019-04-28T12:12:27.498Z,51.10
2019-04-28T12:15:00.670Z,51.10
2019-04-28T12:17:31.203Z,51.20
2019-04-28T12:20:04.710Z,51.30
2019-04-28T12:22:33.779Z,51.40
2019-04-28T12:25:02.592Z,51.40
2019-04-28T12:27:31.435Z,51.50
2019-04-28T12:30:00.507Z,51.50
2019-04-28T12:32:31.531Z,51.60
2019-04-28T12:35:00.359Z,51.60
2019-04-28T12:37:29.195Z,51.50
2019-04-28T12:39:58.030Z,51.30
2019-04-28T12:42:30.058Z,51.40
2019-04-28T12:44:58.961Z,51.30
2019-04-28T12:47:28.035Z,51.40
2019-04-28T12:50:04.689Z,51.50
2019-04-28T12:52:33.573Z,51.50
2019-04-28T12:55:02.502Z,51.50
2019-04-28T12:57:31.328Z,51.50
2019-04-28T13:00:18.025Z,51.50
2019-04-28T13:03:04.694Z,51.50
2019-04-28T13:05:35.229Z,51.50
2019-04-28T13:08:04.067Z,51.50
2019-04-28T13:10:32.893Z,51.30
2019-04-28T13:13:01.827Z,51.20
2019-04-28T13:15:30.643Z,51.20
2019-04-28T13:17:59.478Z,51.00
2019-04-28T13:20:28.373Z,50.90
2019-04-28T13:22:57.200Z,50.90
2019-04-28T13:25:26.129Z,50.80
2019-04-28T13:27:54.931Z,50.80
2019-04-28T13:30:24.779Z,50.80
2019-04-28T13:32:53.632Z,50.60
2019-04-28T13:35:23.343Z,50.40
2019-04-28T13:37:52.470Z,50.40
2019-04-28T13:40:23.201Z,50.20
2019-04-28T13:42:55.828Z,50.10
2019-04-28T13:45:26.282Z,50.00
2019-04-28T13:47:55.117Z,49.80
2019-04-28T13:50:38.307Z,49.70
2019-04-28T13:53:08.095Z,49.50
2019-04-28T13:55:41.502Z,49.50
2019-04-28T13:58:10.389Z,49.50
2019-04-28T14:00:43.667Z,49.30
2019-04-28T14:03:16.942Z,49.10
2019-04-28T14:06:02.398Z,48.90
2019-04-28T14:08:31.250Z,48.70
2019-04-28T14:11:00.072Z,48.60
2019-04-28T14:13:28.879Z,48.50
2019-04-28T14:15:58.044Z,48.40
2019-04-28T14:18:26.910Z,48.40
2019-04-28T14:20:55.743Z,48.70
2019-04-28T14:23:24.604Z,48.40
2019-04-28T14:25:53.531Z,48.30
2019-04-28T14:28:22.309Z,48.10
2019-04-28T14:30:51.218Z,47.40
2019-04-28T14:33:20.070Z,47.50
2019-04-28T14:35:48.881Z,47.60
2019-04-28T14:38:17.727Z,47.40
2019-04-28T14:40:46.690Z,47.50
2019-04-28T14:43:15.785Z,47.10
2019-04-28T14:45:45.168Z,47.40
2019-04-28T14:48:14.051Z,47.40
2019-04-28T14:50:42.925Z,47.40
2019-04-28T14:53:11.701Z,47.10
2019-04-28T14:55:40.602Z,47.20
2019-04-28T14:58:09.598Z,47.00
2019-04-28T15:00:40.399Z,46.80
2019-04-28T15:03:11.161Z,46.80
2019-04-28T15:05:44.174Z,46.30
2019-04-28T15:08:14.721Z,46.00
2019-04-28T15:10:45.165Z,45.30
2019-04-28T15:13:14.131Z,45.40
2019-04-28T15:15:43.021Z,45.80
2019-04-28T15:18:12.217Z,46.00
2019-04-28T15:20:41.080Z,45.90
2019-04-28T15:23:10.181Z,46.10
2019-04-28T15:25:39.012Z,45.60
2019-04-28T15:28:07.900Z,45.50
2019-04-28T15:30:36.723Z,45.40
2019-04-28T15:33:05.780Z,44.90
2019-04-28T15:35:34.831Z,45.00
2019-04-28T15:38:03.691Z,44.80
2019-04-28T15:40:32.839Z,44.40
2019-04-28T15:43:01.659Z,43.90
2019-04-28T15:45:30.538Z,43.70
2019-04-28T15:47:59.329Z,43.60
2019-04-28T15:50:28.434Z,43.70
2019-04-28T15:52:57.262Z,43.80
2019-04-28T15:55:28.061Z,43.90
2019-04-28T15:57:56.974Z,43.30
2019-04-28T16:00:25.839Z,43.60
2019-04-28T16:02:54.741Z,43.30
2019-04-28T16:05:23.578Z,43.50
2019-04-28T16:07:52.412Z,43.30
2019-04-28T16:10:21.282Z,43.60
2019-04-28T16:12:50.113Z,43.50
2019-04-28T16:15:18.938Z,43.50
2019-04-28T16:17:47.875Z,43.50
2019-04-28T16:20:16.761Z,43.50
2019-04-28T16:22:45.584Z,43.50
2019-04-28T16:25:14.422Z,43.30
2019-04-28T16:27:43.531Z,43.30
2019-04-28T16:30:12.575Z,43.20
2019-04-28T16:32:41.330Z,43.50
2019-04-28T16:35:10.361Z,43.70
2019-04-28T16:37:39.400Z,44.10
2019-04-28T16:40:09.605Z,44.40
2019-04-28T16:42:52.984Z,44.70
2019-04-28T16:45:21.902Z,44.90
2019-04-28T16:47:50.715Z,45.10
2019-04-28T16:50:19.626Z,45.20
2019-04-28T16:52:48.457Z,45.30
2019-04-28T16:55:19.016Z,45.30
2019-04-28T16:58:05.593Z,45.40
2019-04-28T17:00:53.702Z,45.40
2019-04-28T17:03:22.519Z,45.40
2019-04-28T17:05:51.413Z,45.50
2019-04-28T17:08:20.707Z,45.80
2019-04-28T17:10:49.740Z,45.60
2019-04-28T17:13:18.522Z,45.60
2019-04-28T17:15:47.444Z,45.60
2019-04-28T17:18:16.341Z,45.60
2019-04-28T17:20:45.184Z,45.70
2019-04-28T17:23:14.284Z,45.70
2019-04-28T17:25:43.098Z,45.60
2019-04-28T17:28:12.377Z,45.50
2019-04-28T17:30:41.222Z,45.50
2019-04-28T17:33:10.036Z,45.50
2019-04-28T17:35:39.138Z,45.70
2019-04-28T17:38:07.984Z,45.60
2019-04-28T17:40:37.060Z,45.50
2019-04-28T17:43:06.325Z,45.50
2019-04-28T17:45:35.226Z,45.60
2019-04-28T17:48:08.993Z,45.60
2019-04-28T17:50:37.917Z,46.00
2019-04-28T17:53:06.738Z,45.20
2019-04-28T17:55:35.555Z,45.10
2019-04-28T17:58:04.390Z,45.00
2019-04-28T18:00:37.568Z,45.00
2019-04-28T18:03:10.972Z,45.00
2019-04-28T18:05:41.664Z,45.10
2019-04-28T18:08:20.869Z,45.20
2019-04-28T18:10:41.183Z,45.30
2019-04-28T18:13:10.087Z,45.50
2019-04-28T18:15:42.932Z,45.60
2019-04-28T18:18:16.619Z,45.90
2019-04-28T18:20:45.433Z,46.20
2019-04-28T18:23:14.261Z,46.40
2019-04-28T18:25:43.095Z,46.50
2019-04-28T18:28:12.188Z,46.50
2019-04-28T18:30:42.881Z,46.70
2019-04-28T18:33:29.375Z,46.80
2019-04-28T18:35:59.827Z,46.90
2019-04-28T18:38:35.984Z,46.90
2019-04-28T18:41:15.442Z,47.10
2019-04-28T18:43:46.248Z,47.20
2019-04-28T18:46:17.439Z,47.50
2019-04-28T18:48:46.329Z,47.50
2019-04-28T18:51:15.159Z,47.50
2019-04-28T18:53:44.654Z,47.50
2019-04-28T18:56:13.486Z,47.50
2019-04-28T18:58:42.320Z,47.50
2019-04-28T19:01:28.485Z,47.60
2019-04-28T19:03:57.317Z,47.60
2019-04-28T19:06:26.132Z,47.60
2019-04-28T19:08:56.601Z,47.70
2019-04-28T19:11:30.134Z,47.80
2019-04-28T19:14:06.639Z,47.80
2019-04-28T19:16:37.108Z,47.80
2019-04-28T19:19:07.634Z,47.90
2019-04-28T19:21:36.573Z,47.90
2019-04-28T19:24:05.450Z,48.00
2019-04-28T19:26:34.339Z,48.10
2019-04-28T19:29:03.465Z,48.10
2019-04-28T19:31:32.311Z,48.10
2019-04-28T19:34:01.178Z,48.20
2019-04-28T19:36:29.969Z,48.20
2019-04-28T19:39:03.418Z,48.30
2019-04-28T19:41:29.794Z,48.30
2019-04-28T19:43:58.877Z,48.30
2019-04-28T19:46:27.971Z,48.20
2019-04-28T19:48:56.798Z,48.20
2019-04-28T19:51:31.862Z,48.20
2019-04-28T19:53:56.798Z,48.30
2019-04-28T19:56:27.306Z,48.30
2019-04-28T19:59:09.349Z,48.30
2019-04-28T20:01:38.449Z,48.40
2019-04-28T20:04:07.279Z,48.40
2019-04-28T20:06:36.201Z,48.40
2019-04-28T20:09:06.650Z,48.50
2019-04-28T20:11:35.737Z,48.60
2019-04-28T20:14:04.743Z,48.70
2019-04-28T20:16:33.558Z,48.50
2019-04-28T20:19:02.394Z,48.60
2019-04-28T20:21:33.147Z,48.60
2019-04-28T20:24:48.414Z,48.10
2019-04-28T20:27:18.918Z,50.20
2019-04-28T20:29:48.606Z,50.80
2019-04-28T20:32:18.249Z,51.30
2019-04-28T20:34:47.916Z,51.70
2019-04-28T20:37:28.491Z,52.00
2019-04-28T20:40:08.853Z,52.30
2019-04-28T20:42:40.986Z,52.40
2019-04-28T20:45:12.302Z,52.50
2019-04-28T20:47:41.907Z,52.70
2019-04-28T20:50:11.819Z,53.00
2019-04-28T20:52:41.703Z,53.20
2019-04-28T20:55:11.607Z,53.50
2019-04-28T20:57:41.283Z,53.60
2019-04-28T21:00:11.170Z,53.80
2019-04-28T21:02:40.784Z,54.00
2019-04-28T21:05:10.457Z,54.00
2019-04-28T21:07:40.164Z,54.20
2019-04-28T21:10:10.653Z,54.40
2019-04-28T21:12:40.285Z,54.50
2019-04-28T21:15:10.397Z,54.60
2019-04-28T21:17:39.956Z,54.80
2019-04-28T21:20:09.935Z,54.80
2019-04-28T21:22:39.647Z,55.00
2019-04-28T21:25:10.872Z,55.10
2019-04-28T21:27:40.485Z,55.10
2019-04-28T21:30:10.977Z,55.30
2019-04-28T21:32:40.578Z,55.50
2019-04-28T21:35:10.186Z,55.50
2019-04-28T21:37:39.788Z,55.60
2019-04-28T21:40:12.021Z,55.80
2019-04-28T21:43:00.079Z,56.40
2019-04-28T21:45:50.145Z,55.90
2019-04-28T21:48:32.414Z,56.00
2019-04-28T21:51:02.147Z,56.10
2019-04-28T21:53:31.763Z,56.20
2019-04-28T21:56:01.690Z,56.20
2019-04-28T21:58:33.196Z,56.20
2019-04-28T22:01:02.742Z,56.30
2019-04-28T22:03:32.816Z,56.30
2019-04-28T22:06:02.412Z,56.30
2019-04-28T22:08:32.267Z,56.40
2019-04-28T22:11:01.854Z,56.50
2019-04-28T22:13:31.759Z,56.60
2019-04-28T22:16:01.352Z,56.50
2019-04-28T22:18:30.986Z,56.60
2019-04-28T22:21:00.571Z,56.60
2019-04-28T22:23:46.739Z,57.30
2019-04-28T22:26:34.136Z,56.70
2019-04-28T22:29:03.709Z,56.50
2019-04-28T22:31:33.394Z,56.50
2019-04-28T22:34:02.997Z,56.50
2019-04-28T22:36:32.819Z,56.50
2019-04-28T22:39:02.426Z,56.50
2019-04-28T22:41:32.024Z,56.50
2019-04-28T22:44:01.621Z,57.20
2019-04-28T22:46:31.287Z,56.50
2019-04-28T22:49:02.526Z,56.60
2019-04-28T22:51:32.733Z,56.70
2019-04-28T22:54:22.009Z,56.80
2019-04-28T22:56:53.240Z,56.70
2019-04-28T22:59:24.499Z,56.70
2019-04-28T23:02:13.666Z,56.90
2019-04-28T23:04:45.048Z,57.00
2019-04-28T23:07:14.861Z,56.90
2019-04-28T23:09:44.541Z,57.00
2019-04-28T23:12:14.338Z,57.20
2019-04-28T23:14:44.179Z,57.30
2019-04-28T23:17:16.945Z,57.40
2019-04-28T23:19:46.606Z,57.50
2019-04-28T23:22:18.087Z,57.50
2019-04-28T23:24:47.693Z,57.60
2019-04-28T23:27:17.350Z,57.70
2019-04-28T23:29:46.977Z,57.80
2019-04-28T23:32:16.716Z,57.90
2019-04-28T23:34:46.341Z,57.90
2019-04-28T23:37:16.133Z,58.10
2019-04-28T23:39:45.678Z,58.30
2019-04-28T23:42:19.680Z,58.40
2019-04-28T23:44:49.323Z,58.50
2019-04-28T23:47:19.010Z,58.70
2019-04-28T23:49:48.619Z,58.70
2019-04-28T23:52:18.004Z,58.80
2019-04-28T23:54:49.523Z,58.90
2019-04-28T23:57:19.354Z,59.10
2019-04-28T23:59:49.213Z,59.10
